Time;durP1;ratioP1;P1;durP2;ratioP2;P2;SDS_P1;SDS_P2;PMS_P1;PMS_P2;Temp;Humidity;BMP_temperature;BMP_pressure;BME280_temperature;BME280_humidity;BME280_pressure;Samples;Min_cycle;Max_cycle;Signal;HPM_P1;HPM_P2
2023/05/04 00:00:18;;;;;;;3.40;1.40;;;;;;;26.09;28.29;101318.16;4115004;28;20065;-69
2023/05/04 00:02:20;;;;;;;3.70;1.60;;;;;;;26.06;28.27;101313.88;4116221;28;20063;-70
2023/05/04 00:04:22;;;;;;;3.33;1.40;;;;;;;26.10;28.38;101312.63;4115123;28;20078;-67
2023/05/04 00:06:23;;;;;;;;;;;;;;;26.08;28.28;101309.22;4116273;28;20103;-69
2023/05/04 00:08:25;;;;;;;3.28;1.50;;;;;;;26.05;28.20;101304.06;4116225;28;19998;-68
2023/05/04 00:10:27;;;;;;;4.25;1.30;;;;;;;26.09;28.08;101299.28;4116197;28;20050;-68
2023/05/04 00:12:29;;;;;;;;;;;;;;;26.06;28.45;101303.09;4126405;28;20092;-69
2023/05/04 00:14:31;;;;;;;;;;;;;;;26.03;28.33;101287.22;4126697;28;20383;-68
2023/05/04 00:16:34;;;;;;;3.17;1.30;;;;;;;26.05;28.49;101285.19;4115989;28;19957;-69
2023/05/04 00:18:36;;;;;;;3.22;1.50;;;;;;;26.10;28.24;101279.41;4115870;28;20106;-69
2023/05/04 00:20:38;;;;;;;2.28;1.35;;;;;;;26.12;28.15;101278.28;4115772;28;20076;-68
2023/05/04 00:22:40;;;;;;;;;;;;;;;26.09;28.54;101275.03;4115304;28;20052;-69
2023/05/04 00:24:44;;;;;;;3.20;1.60;;;;;;;26.06;28.45;101267.19;4119645;28;19921;-68
2023/05/04 00:26:46;;;;;;;3.78;1.50;;;;;;;26.12;28.48;101282.84;4119972;28;20117;-69
2023/05/04 00:28:47;;;;;;;;;;;;;;;26.06;28.51;101276.13;4116378;28;20138;-68
2023/05/04 00:30:52;;;;;;;4.75;1.48;;;;;;;26.06;28.33;101276.13;4115599;28;19929;-68
2023/05/04 00:32:53;;;;;;;3.05;1.42;;;;;;;26.11;28.58;101276.59;4114734;28;20054;-69
2023/05/04 00:34:56;;;;;;;2.58;1.35;;;;;;;26.11;28.45;101273.91;4115446;28;20137;-68
2023/05/04 00:36:57;;;;;;;2.58;1.27;;;;;;;26.14;28.61;101265.53;4098541;29;20055;-70
2023/05/04 00:38:59;;;;;;;2.50;1.20;;;;;;;26.14;28.37;101270.06;4115778;28;20134;-69
2023/05/04 00:41:00;;;;;;;3.22;1.50;;;;;;;26.14;28.58;101259.28;4115467;28;20112;-68
2023/05/04 00:43:02;;;;;;;;;;;;;;;26.14;28.43;101265.53;4113815;28;20062;-69
2023/05/04 00:45:04;;;;;;;3.88;1.60;;;;;;;26.12;28.27;101267.50;4115287;28;19926;-68
2023/05/04 00:47:07;;;;;;;1.77;1.13;;;;;;;26.15;28.31;101266.38;4115481;28;20046;-69
2023/05/04 00:49:09;;;;;;;2.13;1.27;;;;;;;26.13;28.55;101266.50;4115109;28;20043;-68
2023/05/04 00:51:14;;;;;;;4.10;1.33;;;;;;;26.22;28.23;101266.66;4115753;28;20047;-68
2023/05/04 00:53:16;;;;;;;2.85;1.42;;;;;;;26.16;28.44;101262.66;4114540;28;20118;-69
2023/05/04 00:55:17;;;;;;;3.78;1.30;;;;;;;26.17;28.31;101255.44;4115511;28;20419;-68
2023/05/04 00:57:19;;;;;;;3.50;1.50;;;;;;;26.19;28.40;101253.47;4115479;28;20433;-68
2023/05/04 00:59:21;;;;;;;;;;;;;;;26.17;28.44;101248.19;4115988;28;20439;-68
2023/05/04 01:01:23;;;;;;;5.07;1.50;;;;;;;26.12;28.38;101237.00;4115338;28;20019;-68
2023/05/04 01:03:27;;;;;;;3.08;1.40;;;;;;;26.15;28.33;101245.66;4114014;28;20047;-68
2023/05/04 01:05:35;;;;;;;3.83;1.42;;;;;;;26.20;28.55;101245.22;4115206;28;20097;-69
2023/05/04 01:07:36;;;;;;;3.47;1.30;;;;;;;26.19;28.29;101240.81;4115435;28;20475;-69
2023/05/04 01:09:40;;;;;;;;;;;;;;;26.17;28.16;101239.28;4115729;28;20416;-69
2023/05/04 01:11:57;;;;;;;3.53;1.30;;;;;;;26.13;28.48;101228.75;4119498;28;19983;-68
2023/05/04 01:14:00;;;;;;;2.58;1.20;;;;;;;26.18;28.06;101233.72;4129049;28;20153;-68
2023/05/04 01:16:03;;;;;;;3.55;1.40;;;;;;;26.14;28.55;101229.63;4115035;28;20058;-69
2023/05/04 01:18:05;;;;;;;4.00;1.50;;;;;;;26.21;28.05;101233.47;4114218;28;20047;-69
2023/05/04 01:20:08;;;;;;;3.00;1.30;;;;;;;26.21;28.15;101236.16;4115116;28;20054;-68
2023/05/04 01:22:10;;;;;;;2.88;1.40;;;;;;;26.22;28.25;101234.28;4097732;29;20053;-69
2023/05/04 01:24:11;;;;;;;4.10;1.52;;;;;;;26.22;28.11;101231.59;4114122;28;20485;-68
2023/05/04 01:26:15;;;;;;;;;;;;;;;26.20;28.45;101220.97;4118102;28;20512;-68
2023/05/04 01:28:20;;;;;;;2.97;1.33;;;;;;;26.21;28.47;101229.88;4114886;28;19929;-69
2023/05/04 01:30:42;;;;;;;4.40;1.40;;;;;;;26.23;28.23;101223.34;4115170;28;20043;-67
2023/05/04 01:32:44;;;;;;;4.25;1.70;;;;;;;26.23;28.39;101226.06;4114403;28;20362;-68
2023/05/04 01:34:46;;;;;;;3.03;1.48;;;;;;;26.23;28.42;101217.97;4114812;28;20054;-67
2023/05/04 01:36:49;;;;;;;2.65;1.40;;;;;;;26.26;28.04;101224.91;4097790;28;20047;-68
2023/05/04 01:38:56;;;;;;;2.28;1.30;;;;;;;26.26;27.99;101230.31;4114841;28;20097;-69
2023/05/04 01:40:58;;;;;;;3.33;1.40;;;;;;;26.26;28.06;101224.91;4097561;29;20059;-69
2023/05/04 01:42:59;;;;;;;3.03;1.60;;;;;;;26.26;28.39;101223.09;4114200;28;20731;-69
2023/05/04 01:45:02;;;;;;;3.45;1.40;;;;;;;26.26;28.59;101219.50;4114730;28;20138;-70
2023/05/04 01:47:03;;;;;;;3.42;1.45;;;;;;;26.24;28.15;101208.88;4097617;28;20059;-69
2023/05/04 01:49:06;;;;;;;;;;;;;;;26.28;28.10;101212.13;4115381;28;20050;-69
2023/05/04 01:51:08;;;;;;;2.47;1.40;;;;;;;26.26;28.49;101216.81;4114836;28;19922;-68
2023/05/04 01:53:09;;;;;;;3.90;1.60;;;;;;;26.26;28.25;101209.59;4113713;28;20062;-69
2023/05/04 01:55:11;;;;;;;;;;;;;;;26.25;28.49;101207.06;4114919;28;20122;-68
2023/05/04 01:57:13;;;;;;;2.90;1.33;;;;;;;26.22;28.39;101202.81;4115012;28;19953;-69
2023/05/04 01:59:14;;;;;;;;;;;;;;;26.23;28.39;101206.34;4115246;28;20047;-68
2023/05/04 02:01:16;;;;;;;3.83;1.40;;;;;;;26.21;28.36;101208.31;4114414;28;19930;-68
2023/05/04 02:03:17;;;;;;;;;;;;;;;26.22;28.57;101210.03;4114256;28;20094;-68
2023/05/04 02:05:19;;;;;;;3.13;1.60;;;;;;;26.18;28.30;101200.53;4114760;28;19929;-69
2023/05/04 02:07:21;;;;;;;;;;;;;;;26.22;28.63;101202.81;4114999;28;20074;-69
2023/05/04 02:09:23;;;;;;;4.13;1.35;;;;;;;26.21;28.45;101206.50;4114870;28;20017;-69
2023/05/04 02:11:24;;;;;;;;;;;;;;;26.22;28.48;101210.91;4116778;28;20520;-67
2023/05/04 02:13:26;;;;;;;2.42;1.38;;;;;;;26.22;28.35;101204.63;4129913;28;20347;-68
2023/05/04 02:15:27;;;;;;;;;;;;;;;26.23;28.50;101206.34;4100312;28;20126;-70
2023/05/04 02:17:29;;;;;;;2.88;1.30;;;;;;;26.19;28.52;101208.47;4114652;28;19922;-69
2023/05/04 02:19:31;;;;;;;3.47;1.33;;;;;;;26.24;28.56;101202.66;4114672;28;20493;-69
2023/05/04 02:21:32;;;;;;;;;;;;;;;26.23;28.45;101209.88;4114836;28;20070;-69
2023/05/04 02:23:34;;;;;;;2.15;1.25;;;;;;;26.23;28.69;101200.94;4113281;28;20370;-68
2023/05/04 02:25:40;;;;;;;2.55;1.30;;;;;;;26.27;28.76;101196.94;4109199;28;20055;-69
2023/05/04 02:27:42;;;;;;;2.58;1.40;;;;;;;26.26;28.08;101200.63;4098820;28;20075;-69
2023/05/04 02:29:44;;;;;;;;;;;;;;;26.27;28.51;101196.94;4101875;29;20062;-68
2023/05/04 02:31:45;;;;;;;;;;;;;;;26.24;28.36;101191.88;4102152;29;20411;-68
2023/05/04 02:33:49;;;;;;;2.78;1.40;;;;;;;26.24;28.28;101192.72;4100602;29;19986;-67
2023/05/04 02:35:51;;;;;;;2.92;1.60;;;;;;;26.29;28.26;101186.88;4101577;29;20059;-68
2023/05/04 02:37:52;;;;;;;2.60;1.58;;;;;;;26.29;28.54;101186.88;4101688;29;20051;-69
2023/05/04 02:39:54;;;;;;;;;;;;;;;26.30;28.28;101191.28;4102044;29;20055;-68
2023/05/04 02:41:55;;;;;;;2.97;1.33;;;;;;;26.26;28.15;101185.34;4101651;29;19926;-68
2023/05/04 02:43:57;;;;;;;;;;;;;;;26.27;28.23;101184.34;4100656;29;20062;-68
2023/05/04 02:45:58;;;;;;;3.05;1.50;;;;;;;26.23;28.27;101174.81;4101559;29;20302;-68
2023/05/04 02:48:01;;;;;;;2.80;1.48;;;;;;;26.27;28.62;101172.69;4101495;29;20051;-68
2023/05/04 02:50:03;;;;;;;2.13;1.33;;;;;;;26.28;28.43;101172.56;4101345;29;20043;-68
2023/05/04 02:52:05;;;;;;;2.47;1.40;;;;;;;26.30;28.27;101177.81;4101353;29;20058;-68
2023/05/04 02:54:07;;;;;;;;;;;;;;;26.28;28.43;101171.69;4100944;29;20087;-67
2023/05/04 02:56:08;;;;;;;3.13;1.63;;;;;;;26.29;28.42;101179.63;4101435;29;20005;-68
2023/05/04 02:58:10;;;;;;;;;;;;;;;26.29;28.29;101184.19;4101964;29;20081;-68
2023/05/04 03:00:12;;;;;;;2.63;1.40;;;;;;;26.25;28.34;101175.53;4100833;29;19969;-68
2023/05/04 03:02:14;;;;;;;2.78;1.60;;;;;;;26.28;28.34;101171.69;4101216;29;20048;-68
2023/05/04 03:04:15;;;;;;;2.88;1.58;;;;;;;26.28;28.38;101175.25;4100351;29;20464;-68
2023/05/04 03:06:17;;;;;;;;;;;;;;;26.27;28.55;101175.38;4101475;29;20050;-68
2023/05/04 03:08:18;;;;;;;3.78;1.80;;;;;;;26.22;28.59;101166.88;4101212;29;19922;-68
2023/05/04 03:10:20;;;;;;;3.33;1.50;;;;;;;26.27;28.64;101167.28;4101239;29;20058;-68
2023/05/04 03:12:23;;;;;;;3.72;1.70;;;;;;;26.28;28.23;101167.16;4109389;28;20046;-68
2023/05/04 03:14:25;;;;;;;3.35;1.70;;;;;;;26.28;28.20;101164.47;4110950;28;20058;-71
2023/05/04 03:16:26;;;;;;;2.75;1.60;;;;;;;26.33;28.50;101161.31;4084076;29;20470;-70
2023/05/04 03:18:28;;;;;;;;;;;;;;;26.29;28.49;101166.16;4101379;29;20560;-68
2023/05/04 03:20:47;;;;;;;3.03;1.73;;;;;;;26.28;28.62;101159.09;4100873;29;19922;-70
2023/05/04 03:22:49;;;;;;;3.33;1.60;;;;;;;26.34;28.43;101160.31;4100692;28;20061;-70
2023/05/04 03:24:50;;;;;;;3.50;1.50;;;;;;;26.29;28.22;101146.44;4104737;28;20045;-70
2023/05/04 03:26:53;;;;;;;;;;;;;;;26.29;28.62;101147.28;4104772;28;20047;-68
2023/05/04 03:28:55;;;;;;;2.90;1.80;;;;;;;26.23;28.34;101145.16;4100458;29;19973;-70
2023/05/04 03:30:56;;;;;;;;;;;;;;;26.26;28.43;101152.09;4101118;29;20086;-67
2023/05/04 03:32:58;;;;;;;3.75;1.70;;;;;;;26.26;28.46;101152.09;4100922;29;20021;-70
2023/05/04 03:35:00;;;;;;;3.58;1.70;;;;;;;26.28;28.55;101145.59;4099895;29;20116;-70
2023/05/04 03:37:04;;;;;;;3.47;1.60;;;;;;;26.33;28.33;101139.75;4100788;29;20051;-70
2023/05/04 03:39:06;;;;;;;3.42;1.55;;;;;;;26.30;28.26;101135.50;4100578;28;20114;-70
2023/05/04 03:41:09;;;;;;;3.50;1.85;;;;;;;26.23;28.45;101120.06;4099887;29;20051;-70
2023/05/04 03:43:11;;;;;;;2.92;1.77;;;;;;;26.35;28.60;101134.22;4099414;29;20054;-71
2023/05/04 03:45:12;;;;;;;3.40;1.95;;;;;;;26.33;28.19;101138.91;4100143;29;20047;-70
2023/05/04 03:47:14;;;;;;;3.42;1.67;;;;;;;26.33;28.29;101133.50;4100658;29;20131;-71
2023/05/04 03:49:15;;;;;;;3.90;1.95;;;;;;;26.33;28.43;101134.34;4100649;29;20424;-69
2023/05/04 03:51:17;;;;;;;3.63;1.90;;;;;;;26.31;28.37;101144.44;4100683;29;20051;-70
2023/05/04 03:53:19;;;;;;;;;;;;;;;26.32;28.19;101154.25;4100295;29;20047;-69
2023/05/04 03:55:20;;;;;;;3.90;1.83;;;;;;;26.27;28.62;101149.28;4100351;29;20384;-69
2023/05/04 03:57:23;;;;;;;;;;;;;;;26.27;28.54;101149.28;4100529;29;20385;-69
2023/05/04 03:59:24;;;;;;;3.92;1.95;;;;;;;26.28;28.46;101150.13;4100251;29;19965;-69
2023/05/04 04:01:26;;;;;;;;;;;;;;;26.28;28.22;101145.59;4099923;29;20142;-69
2023/05/04 04:03:27;;;;;;;3.03;1.70;;;;;;;26.24;28.28;101136.09;4099307;29;19922;-69
2023/05/04 04:05:29;;;;;;;3.55;1.88;;;;;;;26.31;28.22;101142.59;4100146;29;20498;-70
2023/05/04 04:07:32;;;;;;;4.47;1.67;;;;;;;26.33;28.29;101134.34;4100305;29;20047;-69
2023/05/04 04:09:33;;;;;;;3.42;2.00;;;;;;;26.36;28.46;101127.84;4099986;29;20045;-69
2023/05/04 04:11:35;;;;;;;;;;;;;;;26.30;28.50;101132.78;4103625;28;20118;-69
2023/05/04 04:13:37;;;;;;;3.92;1.83;;;;;;;26.28;28.37;101125.84;4115264;28;19922;-70
2023/05/04 04:15:39;;;;;;;;;;;;;;;26.29;28.44;101124.88;4101932;28;20160;-69
2023/05/04 04:17:43;;;;;;;4.35;1.90;;;;;;;26.29;28.51;101125.69;4099964;29;19922;-68
2023/05/04 04:19:45;;;;;;;;;;;;;;;26.31;28.48;101129.09;4100401;29;20126;-69
2023/05/04 04:21:46;;;;;;;4.70;1.83;;;;;;;26.30;28.39;101123.88;4100137;28;19922;-69
2023/05/04 04:23:48;;;;;;;;;;;;;;;26.32;28.27;101124.59;4115584;28;20405;-68
2023/05/04 04:25:50;;;;;;;4.30;2.00;;;;;;;26.27;28.62;101122.31;4123912;28;19965;-69
2023/05/04 04:27:52;;;;;;;4.82;2.00;;;;;;;26.33;28.12;101128.94;4115776;28;20047;-69
2023/05/04 04:29:53;;;;;;;3.47;2.03;;;;;;;26.36;28.03;101133.22;4115923;28;20189;-68
2023/05/04 04:31:55;;;;;;;3.35;1.95;;;;;;;26.34;28.26;101137.91;4115724;28;20640;-69
2023/05/04 04:33:58;;;;;;;4.00;1.92;;;;;;;26.33;28.39;101130.81;4114604;28;20046;-69
2023/05/04 04:35:59;;;;;;;3.85;1.90;;;;;;;26.23;28.27;101112.81;4115710;28;20122;-69
2023/05/04 04:38:02;;;;;;;3.70;1.92;;;;;;;26.33;28.25;101125.41;4115831;28;20051;-69
2023/05/04 04:40:06;;;;;;;4.38;1.85;;;;;;;26.35;28.32;101120.75;4098318;29;20425;-69
2023/05/04 04:42:08;;;;;;;4.18;1.88;;;;;;;26.37;28.42;101110.63;4115607;28;20051;-69
2023/05/04 04:44:10;;;;;;;3.25;1.75;;;;;;;26.37;28.31;101108.81;4115104;28;20055;-68
2023/05/04 04:46:12;;;;;;;4.60;1.90;;;;;;;26.36;28.17;101100.88;4115478;28;20706;-70
2023/05/04 04:48:13;;;;;;;;;;;;;;;26.37;28.40;101107.94;4116152;28;20496;-67
2023/05/04 04:50:15;;;;;;;4.80;2.10;;;;;;;26.29;28.33;101106.81;4115855;28;19932;-68
2023/05/04 04:52:17;;;;;;;4.03;2.08;;;;;;;26.33;28.39;101098.47;4115709;28;20074;-68
2023/05/04 04:54:18;;;;;;;;;;;;;;;26.31;28.49;101106.69;4114883;28;20077;-69
2023/05/04 04:56:20;;;;;;;4.20;2.00;;;;;;;26.30;28.25;101102.31;4115234;28;20372;-68
2023/05/04 04:58:22;;;;;;;4.18;1.90;;;;;;;26.35;28.52;101094.59;4115577;28;20416;-68
2023/05/04 05:00:25;;;;;;;;;;;;;;;26.33;28.30;101087.66;4115940;28;20047;-69
2023/05/04 05:02:29;;;;;;;3.95;2.00;;;;;;;26.30;28.48;101089.66;4115545;28;19929;-69
2023/05/04 05:04:30;;;;;;;4.32;2.00;;;;;;;26.36;28.40;101087.38;4114395;28;20532;-69
2023/05/04 05:06:32;;;;;;;;;;;;;;;26.36;28.26;101090.91;4115867;28;20047;-67
2023/05/04 05:08:34;;;;;;;4.80;2.17;;;;;;;26.34;28.25;101086.69;4115348;28;20013;-69
2023/05/04 05:10:35;;;;;;;;;;;;;;;26.31;28.34;101085.97;4115621;28;20051;-67
2023/05/04 05:12:36;;;;;;;3.92;2.00;;;;;;;26.30;28.51;101083.44;4126845;28;19925;-68
2023/05/04 05:14:38;;;;;;;;;;;;;;;26.18;28.40;101063.06;4124053;28;20420;-69
2023/05/04 05:16:40;;;;;;;3.08;1.80;;;;;;;26.21;28.40;101071.69;4115370;28;19926;-68
2023/05/04 05:18:42;;;;;;;4.30;2.00;;;;;;;26.29;28.27;101079.88;4115153;28;20055;-68
2023/05/04 05:20:43;;;;;;;;;;;;;;;26.30;28.39;101075.34;4115564;28;20074;-66
2023/05/04 05:22:45;;;;;;;3.83;1.80;;;;;;;26.27;28.34;101081.88;4114998;28;19925;-70
2023/05/04 05:24:46;;;;;;;;;;;;;;;26.29;28.36;101082.56;4114282;28;20420;-68
2023/05/04 05:26:48;;;;;;;4.35;2.10;;;;;;;26.28;28.62;101082.72;4100444;28;19970;-69
2023/05/04 05:28:50;;;;;;;4.28;2.03;;;;;;;26.30;28.45;101084.25;4099183;29;20055;-68
2023/05/04 05:30:51;;;;;;;;;;;;;;;26.28;28.57;101083.59;4099429;29;20122;-69
2023/05/04 05:32:53;;;;;;;3.83;1.70;;;;;;;26.29;28.46;101089.81;4099192;29;19946;-68
2023/05/04 05:34:55;;;;;;;3.30;1.73;;;;;;;26.32;28.50;101089.53;4080941;29;20055;-69
2023/05/04 05:36:57;;;;;;;3.40;1.95;;;;;;;26.31;28.53;101082.44;4099121;29;20047;-70
2023/05/04 05:38:59;;;;;;;4.30;1.98;;;;;;;26.31;28.42;101085.97;4098848;29;20086;-69
2023/05/04 05:41:01;;;;;;;4.35;1.98;;;;;;;26.37;28.40;101086.34;4099149;29;20047;-67
2023/05/04 05:43:04;;;;;;;3.72;1.83;;;;;;;26.31;28.29;101077.88;4098915;29;20481;-68
2023/05/04 05:45:07;;;;;;;3.67;1.73;;;;;;;26.34;28.52;101087.50;4097939;29;20047;-68
2023/05/04 05:47:08;;;;;;;4.57;1.70;;;;;;;26.36;28.16;101090.09;4098935;29;20127;-68
2023/05/04 05:49:10;;;;;;;4.45;2.00;;;;;;;26.37;28.43;101099.84;4098937;29;20055;-68
2023/05/04 05:51:11;;;;;;;;;;;;;;;26.36;28.12;101098.16;4081991;29;20052;-67
2023/05/04 05:53:13;;;;;;;3.58;1.80;;;;;;;26.32;28.26;101092.22;4098519;29;20455;-68
2023/05/04 05:55:14;;;;;;;4.15;1.60;;;;;;;26.32;28.65;101097.63;4097963;29;20440;-69
2023/05/04 05:57:16;;;;;;;;;;;;;;;26.30;28.39;101100.44;4099378;29;20061;-66
2023/05/04 05:59:18;;;;;;;4.00;2.15;;;;;;;26.26;28.58;101106.28;4097881;29;19922;-69
2023/05/04 06:01:19;;;;;;;3.10;1.77;;;;;;;26.24;28.53;101103.72;4098729;29;20047;-68
2023/05/04 06:03:21;;;;;;;4.50;2.00;;;;;;;26.26;28.51;101107.13;4099955;28;20058;-68
2023/05/04 06:05:23;;;;;;;3.42;1.55;;;;;;;26.30;28.16;101105.84;4101062;29;20061;-69
2023/05/04 06:07:25;;;;;;;;;;;;;;;26.30;28.63;101100.44;4100947;29;20141;-69
2023/05/04 06:09:26;;;;;;;3.83;1.90;;;;;;;26.32;28.68;101097.63;4102088;29;19923;-68
2023/05/04 06:11:28;;;;;;;;;;;;;;;26.31;28.43;101088.66;4104696;28;20047;-69
2023/05/04 06:13:30;;;;;;;3.88;1.95;;;;;;;26.30;28.43;101089.66;4117852;28;19922;-70
2023/05/04 06:15:31;;;;;;;3.78;1.80;;;;;;;26.30;28.34;101086.97;4101844;28;20098;-69
2023/05/04 06:17:33;;;;;;;;;;;;;;;26.30;28.62;101088.81;4085457;29;20055;-67
2023/05/04 06:19:36;;;;;;;4.00;1.83;;;;;;;26.29;28.56;101079.88;4101762;29;19922;-67
2023/05/04 06:21:38;;;;;;;3.20;1.75;;;;;;;26.35;28.41;101072.19;4084642;29;20048;-68
2023/05/04 06:23:40;;;;;;;;;;;;;;;26.31;28.71;101067.09;4116567;28;20166;-69
2023/05/04 06:25:42;;;;;;;3.15;1.90;;;;;;;26.27;28.75;101051.34;4125962;28;19953;-67
2023/05/04 06:27:44;;;;;;;3.50;1.55;;;;;;;26.33;28.56;101056.16;4117620;28;20047;-69
2023/05/04 06:29:45;;;;;;;;;;;;;;;26.36;28.26;101050.47;4118236;28;20459;-69
2023/05/04 06:31:47;;;;;;;3.80;1.65;;;;;;;26.29;28.52;101047.50;4117536;28;20414;-68
2023/05/04 06:33:49;;;;;;;3.00;1.67;;;;;;;26.36;28.35;101049.63;4099561;28;20102;-69
2023/05/04 06:35:52;;;;;;;2.90;1.75;;;;;;;26.38;28.13;101053.00;4117511;28;20051;-68
2023/05/04 06:37:53;;;;;;;3.58;1.73;;;;;;;26.37;28.22;101062.97;4117577;28;20051;-67
2023/05/04 06:39:56;;;;;;;4.18;1.80;;;;;;;26.34;28.54;101068.63;4117406;28;20065;-69
2023/05/04 06:41:58;;;;;;;3.30;1.65;;;;;;;26.35;28.65;101059.56;4117704;28;20050;-68
2023/05/04 06:44:00;;;;;;;3.50;1.90;;;;;;;26.31;28.57;101063.56;4116640;28;20449;-68
2023/05/04 06:46:02;;;;;;;5.40;2.15;;;;;;;26.36;28.30;101066.66;4117257;28;20156;-68
2023/05/04 06:48:05;;;;;;;3.78;2.00;;;;;;;26.35;28.31;101064.94;4117675;28;20053;-69
2023/05/04 06:50:10;;;;;;;3.10;1.75;;;;;;;26.41;28.39;101068.91;4117039;28;20051;-68
2023/05/04 06:52:13;;;;;;;2.95;1.60;;;;;;;26.40;28.24;101069.88;4116973;28;20488;-69
2023/05/04 06:54:14;;;;;;;4.22;2.40;;;;;;;26.38;28.37;101077.28;4115804;28;20130;-69
2023/05/04 06:56:16;;;;;;;;;;;;;;;26.37;28.67;101076.44;4117440;28;20460;-68
2023/05/04 06:58:18;;;;;;;4.30;1.98;;;;;;;26.36;28.63;101073.91;4117461;28;20054;-70
2023/05/04 07:00:20;;;;;;;3.72;1.88;;;;;;;26.37;28.81;101062.09;4117438;28;20129;-68
2023/05/04 07:02:22;;;;;;;4.32;1.92;;;;;;;26.28;28.47;101039.56;4117345;28;20042;-69
2023/05/04 07:04:24;;;;;;;3.97;1.70;;;;;;;26.38;28.55;101051.19;4116507;28;20054;-68
2023/05/04 07:06:26;;;;;;;;;;;;;;;26.38;28.59;101047.59;4117312;28;20077;-67
2023/05/04 07:08:27;;;;;;;4.05;1.73;;;;;;;26.38;28.47;101044.91;4117304;28;19922;-67
2023/05/04 07:10:29;;;;;;;4.03;1.75;;;;;;;26.39;28.71;101046.63;4117154;28;20078;-68
2023/05/04 07:12:31;;;;;;;3.88;1.73;;;;;;;26.42;28.52;101044.47;4127495;28;20042;-67
2023/05/04 07:14:33;;;;;;;4.82;1.80;;;;;;;26.44;28.69;101055.97;4123844;28;20053;-68
2023/05/04 07:16:35;;;;;;;4.47;2.00;;;;;;;26.43;28.42;101048.88;4116840;28;20071;-68
2023/05/04 07:18:37;;;;;;;4.90;1.88;;;;;;;26.49;28.60;101051.94;4117156;28;20134;-68
2023/05/04 07:20:41;;;;;;;3.63;1.73;;;;;;;26.43;28.64;101032.69;4116547;28;20043;-68
2023/05/04 07:22:43;;;;;;;3.72;1.60;;;;;;;26.42;28.75;101033.69;4116785;28;20462;-68
2023/05/04 07:24:45;;;;;;;;;;;;;;;26.40;28.33;101038.38;4120328;28;20492;-68
2023/05/04 07:26:47;;;;;;;3.65;1.83;;;;;;;26.37;28.77;101036.00;4121014;28;19922;-68
2023/05/04 07:28:49;;;;;;;4.25;1.70;;;;;;;26.45;28.84;101044.19;4116874;28;20047;-68
2023/05/04 07:30:50;;;;;;;3.25;1.70;;;;;;;26.46;28.90;101045.84;4116670;28;20047;-68
2023/05/04 07:32:52;;;;;;;;;;;;;;;26.45;28.45;101046.00;4117226;28;20051;-67
2023/05/04 07:34:53;;;;;;;3.20;1.70;;;;;;;26.45;28.70;101063.06;4115179;28;20008;-69
2023/05/04 07:36:55;;;;;;;;;;;;;;;26.45;28.72;101063.06;4117216;28;20121;-68
2023/05/04 07:38:56;;;;;;;3.10;1.67;;;;;;;26.44;28.98;101066.75;4115389;28;19930;-68
2023/05/04 07:40:58;;;;;;;3.35;1.80;;;;;;;26.46;28.55;101066.59;4116592;28;20062;-68
2023/05/04 07:42:59;;;;;;;;;;;;;;;26.46;28.87;101055.81;4116875;28;20106;-68
2023/05/04 07:45:02;;;;;;;2.47;1.50;;;;;;;26.44;28.94;101057.78;4115875;28;19922;-68
2023/05/04 07:47:06;;;;;;;4.60;1.80;;;;;;;26.47;28.85;101061.03;4116595;28;20141;-67
2023/05/04 07:49:08;;;;;;;3.88;1.80;;;;;;;26.50;28.62;101051.78;4116082;28;20050;-67
2023/05/04 07:51:13;;;;;;;3.33;1.67;;;;;;;26.54;28.49;101055.91;4116456;28;20135;-68
2023/05/04 07:53:15;;;;;;;3.95;1.85;;;;;;;26.53;28.71;101046.09;4116429;28;20058;-68
2023/05/04 07:55:17;;;;;;;;;;;;;;;26.55;28.58;101049.50;4115833;28;20134;-68
2023/05/04 07:57:20;;;;;;;3.05;1.48;;;;;;;26.56;28.52;101053.03;4116303;28;20328;-68
2023/05/04 07:59:21;;;;;;;2.80;1.52;;;;;;;26.59;28.71;101050.91;4116542;28;20055;-68
2023/05/04 08:01:24;;;;;;;4.45;1.67;;;;;;;26.59;28.57;101050.91;4116485;28;20046;-68
2023/05/04 08:03:25;;;;;;;3.85;1.88;;;;;;;26.60;28.66;101054.47;4115958;28;20146;-68
2023/05/04 08:05:27;;;;;;;;;;;;;;;26.58;28.90;101049.19;4115680;28;20047;-68
2023/05/04 08:07:29;;;;;;;;;;;;;;;26.60;29.00;101043.66;4116825;28;20058;-68
2023/05/04 08:09:30;;;;;;;;;;;;;;;26.60;28.65;101049.06;4116796;28;20013;-66
2023/05/04 08:11:33;;;;;;;;;;;;;;;26.61;28.98;101043.50;4117347;28;20411;-70
2023/05/04 08:13:35;;;;;;;;;;;;;;;26.58;28.87;101051.06;4132580;28;19943;-68
2023/05/04 08:15:36;;;;;;;;;;;;;;;26.56;28.88;101045.81;4116607;28;20016;-70
2023/05/04 08:17:39;;;;;;;;;;;;;;;26.59;29.34;101041.97;4114178;28;19925;-69
2023/05/04 08:19:41;;;;;;;;;;;;;;;26.47;29.68;101041.31;4113036;28;19922;-69
2023/05/04 08:21:42;;;;;;;;;;;;;;;26.49;30.12;101051.94;4098096;28;19961;-67
2023/05/04 08:23:44;;;;;;;;;;;;;;;26.38;29.28;101058.41;4115480;28;20024;-68
2023/05/04 08:25:45;;;;;;;;;;;;;;;26.34;29.54;101057.00;4114704;28;19922;-67
2023/05/04 08:27:47;;;;;;;;;;;;;;;26.31;30.13;101056.31;4115406;28;19965;-67
2023/05/04 08:29:48;;;;;;;;;;;;;;;26.30;29.46;101057.28;4115507;28;19928;-67
2023/05/04 08:31:50;;;;;;;;;;;;;;;26.28;29.93;101053.91;4115714;28;19926;-66
2023/05/04 08:33:51;;;;;;;;;;;;;;;26.28;29.76;101051.22;4115112;28;19928;-67
2023/05/04 08:35:53;;;;;;;;;;;;;;;26.23;30.04;101049.97;4114216;28;20405;-65
2023/05/04 08:37:54;;;;;;;;;;;;;;;26.22;30.21;101043.75;4115415;28;19922;-68
2023/05/04 08:39:56;;;;;;;;;;;;;;;26.22;29.78;101042.88;4115441;28;19969;-67
2023/05/04 08:41:58;;;;;;;;;;;;;;;26.13;29.61;101034.69;4115402;28;19996;-67
2023/05/04 08:43:59;;;;;;;;;;;;;;;26.11;30.02;101033.13;4112724;28;20390;-67
2023/05/04 08:46:02;;;;;;;;;;;;;;;26.09;29.92;101033.28;4096850;29;20335;-69
2023/05/04 08:48:07;;;;;;;;;;;;;;;26.07;29.80;101018.25;4114618;28;19945;-68
2023/05/04 08:50:09;;;;;;;;;;;;;;;25.97;30.41;101026.38;4114770;28;19934;-68
2023/05/04 08:52:12;;;;;;;;;;;;;;;25.99;29.99;101024.34;4114960;28;19921;-67
2023/05/04 08:54:14;;;;;;;;;;;;;;;25.95;30.43;101017.56;4114350;28;19926;-68
2023/05/04 08:56:16;;;;;;;;;;;;;;;25.88;30.01;101017.28;4114824;28;19957;-68
2023/05/04 08:58:20;;;;;;;;;;;;;;;25.86;30.28;101023.84;4114920;28;20458;-67
2023/05/04 09:00:22;;;;;;;;;;;;;;;25.83;30.38;101019.59;4112821;28;19953;-66
2023/05/04 09:02:25;;;;;;;;;;;;;;;25.72;30.32;101014.41;4098406;29;19986;-66
2023/05/04 09:04:27;;;;;;;;;;;;;;;25.76;30.45;101016.66;4113707;28;19932;-65
2023/05/04 09:06:30;;;;;;;;;;;;;;;25.68;30.43;101011.16;4115624;28;20327;-65
2023/05/04 09:08:32;;;;;;;;;;;;;;;25.64;30.77;101009.75;4112320;28;19922;-64
2023/05/04 09:10:33;;;;;;;;;;;;;;;25.69;31.07;101007.47;4104677;28;19928;-62
2023/05/04 09:12:36;;;;;;;;;;;;;;;25.64;30.79;101018.66;4111071;28;19977;-62
2023/05/04 09:14:40;;;;;;;;;;;;;;;25.56;30.89;101023.09;4113980;28;19938;-62
2023/05/04 09:16:41;;;;;;;;;;;;;;;25.47;31.37;101025.66;4119169;28;19926;-61
2023/05/04 09:18:43;;;;;;;;;;;;;;;25.49;31.36;101030.88;4120933;28;19932;-67
2023/05/04 09:20:46;;;;;;;;;;;;;;;25.40;31.41;101016.44;4114957;28;19953;-65
2023/05/04 09:22:58;;;;;;;;;;;;;;;25.49;31.30;101017.41;4118674;28;20367;-67
2023/05/04 09:25:09;;;;;;;;;;;;;;;25.45;31.61;101014.16;4128335;28;19960;-77
2023/05/04 09:27:11;;;;;;;;;;;;;;;25.52;31.28;101007.22;4121882;28;19926;-69
2023/05/04 09:29:13;;;;;;;;;;;;;;;25.42;31.35;101002.84;4102397;28;19934;-74
2023/05/04 09:31:15;;;;;;;;;;;;;;;25.45;31.44;101005.25;4115487;28;19957;-73
2023/05/04 09:33:24;;;;;;;;;;;;;;;25.50;31.24;101000.28;4124955;28;19925;-71
2023/05/04 09:35:27;;;;;;;;;;;;;;;25.54;31.33;100992.75;4113125;28;19928;-69
2023/05/04 09:37:41;;;;;;;;;;;;;;;25.48;31.83;100999.56;4120599;28;20305;-73
2023/05/04 09:39:50;;;;;;;;;;;;;;;25.52;31.64;100998.28;4118891;28;19926;-73
2023/05/04 09:41:52;;;;;;;;;;;;;;;25.52;31.41;100996.44;4114962;28;19987;-76
2023/05/04 09:43:53;;;;;;;;;;;;;;;25.49;31.68;100998.56;4118677;28;19930;-77
2023/05/04 09:45:55;;;;;;;;;;;;;;;25.52;31.47;101006.38;4122057;28;19932;-78
2023/05/04 09:47:57;;;;;;;;;;;;;;;25.54;31.43;101000.84;4121204;28;20164;-71
2023/05/04 09:50:09;;;;;;;;;;;;;;;25.56;31.63;101017.69;4122479;28;19937;-73